Time,TemperatureF,DewpointF,PressureIn,WindDirection,WindDirectionDegrees,WindSpeedMPH,WindSpeedGustMPH,Humidity,HourlyPrecipIn,Conditions,Clouds,dailyrainin,SoftwareType,DateUTC
2013-03-25 00:27:00,57.7,50.3,29.94,SW,225,0.0,0.0,76,0.00,,SCT,0.00,WUHU21623XXSP,2013-03-24 22:27:00,
2013-03-25 01:27:00,57.4,50.7,29.93,SE,135,0.0,0.0,78,0.00,,SCT,0.00,WUHU21623XXSP,2013-03-24 23:27:00,
2013-03-25 02:27:00,55.9,50.5,29.91,NNE,23,0.0,0.0,82,0.00,,SCT,0.00,WUHU21623XXSP,2013-03-25 00:27:00,
2013-03-25 03:27:00,55.2,50.1,29.89,North,0,0.0,0.0,83,0.00,,SCT,0.00,WUHU21623XXSP,2013-03-25 01:27:00,
2013-03-25 04:27:00,54.9,49.5,29.88,NNE,23,0.0,0.0,82,0.00,,SCT,0.00,WUHU21623XXSP,2013-03-25 02:27:00,
2013-03-25 05:27:00,54.1,48.1,29.87,NE,45,0.0,0.0,80,0.00,,SCT,0.00,WUHU21623XXSP,2013-03-25 03:27:00,
2013-03-25 06:27:00,53.8,48.8,29.87,North,0,0.0,0.0,83,0.00,,SCT,0.00,WUHU21623XXSP,2013-03-25 04:27:00,
2013-03-25 07:33:00,55.4,51.3,29.87,NNE,22,0.0,0.0,86,0.00,,BKN,0.00,WUHU21623XXSP,2013-03-25 05:33:00,
2013-03-25 07:38:00,55.8,51.4,29.87,North,0,0.0,2.2,85,0.00,,OVC,0.00,WUHU21623XXSP,2013-03-25 05:38:00,
2013-03-25 07:43:00,55.9,50.8,29.88,NNW,337,0.0,2.2,83,0.00,,OVC,0.00,WUHU21623XXSP,2013-03-25 05:43:00,
2013-03-25 07:48:00,56.1,51.0,29.87,NNE,22,0.0,0.0,83,0.00,,OVC,0.00,WUHU21623XXSP,2013-03-25 05:48:00,
2013-03-25 07:53:00,56.3,50.6,29.87,NNW,337,0.0,0.0,81,0.00,,OVC,0.00,WUHU21623XXSP,2013-03-25 05:53:00,
2013-03-25 07:58:00,56.7,51.0,29.87,NNE,22,0.0,0.0,81,0.00,,OVC,0.00,WUHU21623XXSP,2013-03-25 05:58:00,
2013-03-25 08:03:00,56.8,51.1,29.85,North,0,5.2,5.6,81,0.00,,OVC,0.00,WUHU21623XXSP,2013-03-25 06:03:00,
2013-03-25 08:08:00,56.8,50.7,29.87,NW,315,0.0,5.6,80,0.00,,OVC,0.00,WUHU21623XXSP,2013-03-25 06:08:00,
2013-03-25 08:13:00,57.4,51.3,29.86,North,0,0.0,5.6,80,0.00,,OVC,0.00,WUHU21623XXSP,2013-03-25 06:13:00,
2013-03-25 08:18:00,57.6,51.5,29.85,NNE,22,0.0,2.2,80,0.00,,OVC,0.00,WUHU21623XXSP,2013-03-25 06:18:00,
2013-03-25 08:23:00,57.4,51.0,29.85,NNE,22,0.0,2.2,79,0.00,,OVC,0.00,WUHU21623XXSP,2013-03-25 06:23:00,
2013-03-25 08:29:00,57.6,51.2,29.87,West,270,0.0,0.0,79,0.00,,OVC,0.00,WUHU21623XXSP,2013-03-25 06:29:00,
2013-03-25 08:34:00,57.9,51.8,29.86,NNE,22,0.0,1.0,80,0.00,,OVC,0.00,WUHU21623XXSP,2013-03-25 06:34:00,
2013-03-25 08:39:00,58.1,51.7,29.86,North,0,0.0,1.0,79,0.00,,OVC,0.00,WUHU21623XXSP,2013-03-25 06:39:00,
2013-03-25 08:44:00,58.5,51.7,29.85,North,0,0.0,1.2,78,0.00,,OVC,0.00,WUHU21623XXSP,2013-03-25 06:44:00,
2013-03-25 08:49:00,58.8,51.7,29.85,North,0,0.0,2.8,77,0.00,,OVC,0.00,WUHU21623XXSP,2013-03-25 06:49:00,
2013-03-25 08:54:00,59.4,52.3,29.85,ENE,67,0.0,2.8,77,0.00,,OVC,0.00,WUHU21623XXSP,2013-03-25 06:54:00,
2013-03-25 08:59:00,59.9,51.7,29.84,NNW,337,0.0,2.8,74,0.00,,OVC,0.00,WUHU21623XXSP,2013-03-25 06:59:00,
2013-03-25 09:04:00,59.9,51.0,29.83,NNE,22,4.0,4.0,72,0.00,,OVC,0.00,WUHU21623XXSP,2013-03-25 07:04:00,
2013-03-25 09:09:00,60.3,51.4,29.80,NE,45,2.2,7.4,72,0.00,,OVC,0.00,WUHU21623XXSP,2013-03-25 07:09:00,
2013-03-25 09:14:00,60.4,50.7,29.80,ENE,67,5.4,10.3,70,0.00,,OVC,0.00,WUHU21623XXSP,2013-03-25 07:14:00,
2013-03-25 09:19:00,60.6,50.9,29.80,NNE,22,0.0,10.3,70,0.00,,OVC,0.00,WUHU21623XXSP,2013-03-25 07:19:00,
2013-03-25 09:24:00,61.2,51.1,29.80,NE,45,0.0,7.6,69,0.00,,BKN,0.00,WUHU21623XXSP,2013-03-25 07:24:00,
2013-03-25 09:29:00,61.7,50.8,29.80,East,90,2.0,15.3,67,0.00,,BKN,0.00,WUHU21623XXSP,2013-03-25 07:29:00,
2013-03-25 09:34:00,61.7,50.8,29.81,North,0,0.0,15.3,67,0.00,,BKN,0.00,WUHU21623XXSP,2013-03-25 07:34:00,
2013-03-25 09:39:00,61.9,51.4,29.82,NNE,22,0.0,10.6,68,0.00,,BKN,0.00,WUHU21623XXSP,2013-03-25 07:39:00,
2013-03-25 09:44:00,62.2,51.7,29.82,NE,45,0.0,9.4,68,0.00,,BKN,0.00,WUHU21623XXSP,2013-03-25 07:44:00,
2013-03-25 09:49:00,62.6,51.6,29.83,NE,45,0.0,9.4,67,0.00,,BKN,0.00,WUHU21623XXSP,2013-03-25 07:49:00,
2013-03-25 09:54:00,63.3,52.3,29.83,East,90,0.0,5.9,67,0.00,,BKN,0.00,WUHU21623XXSP,2013-03-25 07:54:00,
2013-03-25 09:59:00,63.0,51.2,29.83,NE,45,4.4,6.6,65,0.00,,BKN,0.00,WUHU21623XXSP,2013-03-25 07:59:00,
2013-03-25 10:04:00,63.5,51.3,29.83,SSE,157,0.0,6.6,64,0.00,,BKN,0.00,WUHU21623XXSP,2013-03-25 08:04:00,
2013-03-25 10:09:00,64.4,51.7,29.82,SSW,202,0.0,4.4,63,0.00,,BKN,0.00,WUHU21623XXSP,2013-03-25 08:09:00,
2013-03-25 10:14:00,64.8,51.2,29.81,SSE,157,0.0,4.4,61,0.00,,BKN,0.00,WUHU21623XXSP,2013-03-25 08:14:00,
2013-03-25 10:19:00,65.1,51.0,29.80,WNW,292,0.0,4.4,60,0.00,,BKN,0.00,WUHU21623XXSP,2013-03-25 08:19:00,
2013-03-25 10:24:00,65.3,50.3,29.80,NNE,22,0.0,4.4,58,0.00,,BKN,0.00,WUHU21623XXSP,2013-03-25 08:24:00,
2013-03-25 10:29:00,66.0,50.9,29.80,ESE,112,0.0,6.4,58,0.00,,BKN,0.00,WUHU21623XXSP,2013-03-25 08:29:00,
2013-03-25 10:34:00,66.7,49.6,29.80,SSE,157,2.8,9.8,54,0.00,,BKN,0.00,WUHU21623XXSP,2013-03-25 08:34:00,
2013-03-25 10:39:00,67.3,49.7,29.80,SSW,202,0.0,10.8,53,0.00,,BKN,0.00,WUHU21623XXSP,2013-03-25 08:39:00,
2013-03-25 10:44:00,68.2,50.0,29.80,SE,135,1.4,10.8,52,0.00,,BKN,0.00,WUHU21623XXSP,2013-03-25 08:44:00,
2013-03-25 10:49:00,67.8,49.6,29.79,SE,135,0.0,10.8,52,0.00,,BKN,0.00,WUHU21623XXSP,2013-03-25 08:49:00,
2013-03-25 10:54:00,68.0,49.3,29.79,SSE,157,11.3,17.5,51,0.00,,BKN,0.00,WUHU21623XXSP,2013-03-25 08:54:00,
2013-03-25 10:59:00,67.6,48.9,29.79,NE,45,3.2,17.5,51,0.00,,BKN,0.00,WUHU21623XXSP,2013-03-25 08:59:00,
2013-03-25 11:04:00,67.6,48.9,29.78,SSE,157,10.6,13.5,51,0.00,,BKN,0.00,WUHU21623XXSP,2013-03-25 09:04:00,
2013-03-25 11:09:00,68.0,49.3,29.78,SE,135,1.0,13.5,51,0.00,,BKN,0.00,WUHU21623XXSP,2013-03-25 09:09:00,
2013-03-25 11:14:00,68.7,49.9,29.78,SSE,157,4.0,11.1,51,0.00,,BKN,0.00,WUHU21623XXSP,2013-03-25 09:14:00,
2013-03-25 11:19:00,68.2,48.9,29.79,South,180,4.2,16.3,50,0.00,,BKN,0.00,WUHU21623XXSP,2013-03-25 09:19:00,
2013-03-25 11:24:00,67.8,48.0,29.79,SSE,157,5.2,16.5,49,0.00,,BKN,0.00,WUHU21623XXSP,2013-03-25 09:24:00,
2013-03-25 11:29:00,67.5,48.2,29.79,SSE,157,8.4,16.5,50,0.00,,BKN,0.00,WUHU21623XXSP,2013-03-25 09:29:00,
2013-03-25 11:34:00,67.1,47.9,29.79,ESE,112,0.0,15.9,50,0.00,,BKN,0.00,WUHU21623XXSP,2013-03-25 09:34:00,
2013-03-25 11:39:00,66.9,48.2,29.79,SSE,157,3.2,17.3,51,0.00,,BKN,0.00,WUHU21623XXSP,2013-03-25 09:39:00,
2013-03-25 11:44:00,66.4,47.8,29.79,SSE,157,8.4,18.3,51,0.00,,BKN,0.00,WUHU21623XXSP,2013-03-25 09:44:00,
2013-03-25 11:49:00,65.8,47.8,29.79,SSE,157,15.5,23.1,52,0.00,,BKN,0.00,WUHU21623XXSP,2013-03-25 09:49:00,
2013-03-25 11:54:00,65.7,47.7,29.79,East,90,3.0,23.1,52,0.00,,BKN,0.00,WUHU21623XXSP,2013-03-25 09:54:00,
2013-03-25 11:59:00,65.3,47.8,29.77,SE,135,2.2,19.7,53,0.00,,BKN,0.00,WUHU21623XXSP,2013-03-25 09:59:00,
2013-03-25 12:04:00,65.3,47.8,29.77,SSE,157,9.8,17.9,53,0.00,,BKN,0.00,WUHU21623XXSP,2013-03-25 10:04:00,
2013-03-25 12:09:00,64.9,46.9,29.77,SSW,202,0.0,20.1,52,0.00,,OVC,0.00,WUHU21623XXSP,2013-03-25 10:09:00,
2013-03-25 12:14:00,64.8,46.8,29.78,SE,135,6.6,20.1,52,0.00,,OVC,0.00,WUHU21623XXSP,2013-03-25 10:14:00,
2013-03-25 12:19:00,64.9,47.4,29.78,ESE,112,4.9,17.3,53,0.00,,OVC,0.00,WUHU21623XXSP,2013-03-25 10:19:00,
2013-03-25 12:24:00,64.9,47.4,29.77,ESE,112,12.8,15.7,53,0.00,,OVC,0.00,WUHU21623XXSP,2013-03-25 10:24:00,
2013-03-25 12:29:00,64.8,47.9,29.77,South,180,9.8,15.7,54,0.00,,OVC,0.00,WUHU21623XXSP,2013-03-25 10:29:00,
2013-03-25 12:34:00,64.9,48.4,29.77,South,180,3.4,16.7,55,0.00,,OVC,0.00,WUHU21623XXSP,2013-03-25 10:34:00,
2013-03-25 12:39:00,64.9,47.9,29.78,SE,135,8.9,16.9,54,0.00,,OVC,0.00,WUHU21623XXSP,2013-03-25 10:39:00,
2013-03-25 12:44:00,64.2,47.8,29.76,SSE,157,6.2,16.9,55,0.00,,OVC,0.00,WUHU21623XXSP,2013-03-25 10:44:00,
2013-03-25 12:49:00,64.2,47.8,29.77,SSE,157,5.2,16.3,55,0.00,,OVC,0.00,WUHU21623XXSP,2013-03-25 10:49:00,
2013-03-25 12:54:00,64.2,47.8,29.76,South,180,5.4,21.7,55,0.00,,OVC,0.00,WUHU21623XXSP,2013-03-25 10:54:00,
2013-03-25 12:59:00,64.2,48.3,29.75,SSE,157,6.6,21.7,56,0.00,,OVC,0.00,WUHU21623XXSP,2013-03-25 10:59:00,
2013-03-25 13:04:00,64.0,48.1,29.75,South,180,4.4,15.7,56,0.00,,OVC,0.00,WUHU21623XXSP,2013-03-25 11:04:00,
2013-03-25 13:09:00,64.6,48.7,29.76,SSE,157,2.8,16.7,56,0.00,,OVC,0.00,WUHU21623XXSP,2013-03-25 11:09:00,
2013-03-25 13:14:00,64.8,48.4,29.76,SSE,157,2.4,16.7,55,0.00,,OVC,0.00,WUHU21623XXSP,2013-03-25 11:14:00,
2013-03-25 13:19:00,65.3,48.8,29.75,SSE,157,3.7,16.3,55,0.00,,OVC,0.00,WUHU21623XXSP,2013-03-25 11:19:00,
2013-03-25 13:24:00,66.7,49.6,29.75,SSE,157,15.7,15.7,54,0.00,,OVC,0.00,WUHU21623XXSP,2013-03-25 11:24:00,
2013-03-25 13:29:00,66.6,49.0,29.75,SSE,157,6.6,18.3,53,0.00,,OVC,0.00,WUHU21623XXSP,2013-03-25 11:29:00,
2013-03-25 13:34:00,67.1,49.0,29.75,SSE,157,9.6,18.3,52,0.00,,OVC,0.00,WUHU21623XXSP,2013-03-25 11:34:00,
2013-03-25 13:39:00,67.5,48.2,29.73,SSE,157,9.4,21.5,50,0.00,,OVC,0.00,WUHU21623XXSP,2013-03-25 11:39:00,
2013-03-25 13:44:00,67.6,48.3,29.73,SSE,157,9.4,21.5,50,0.00,,OVC,0.00,WUHU21623XXSP,2013-03-25 11:44:00,
2013-03-25 13:49:00,68.0,48.7,29.74,South,180,11.3,18.3,50,0.00,,OVC,0.00,WUHU21623XXSP,2013-03-25 11:49:00,
2013-03-25 13:54:00,67.8,48.5,29.73,SE,135,4.2,17.9,50,0.00,,OVC,0.00,WUHU21623XXSP,2013-03-25 11:54:00,
2013-03-25 13:59:00,68.4,49.1,29.73,SE,135,10.6,15.9,50,0.00,,OVC,0.00,WUHU21623XXSP,2013-03-25 11:59:00,
2013-03-25 14:04:00,68.2,48.3,29.73,SSE,157,8.6,23.4,49,0.00,,OVC,0.00,WUHU21623XXSP,2013-03-25 12:04:00,
2013-03-25 14:09:00,67.8,48.0,29.72,SSE,157,14.3,23.4,49,0.00,,OVC,0.00,WUHU21623XXSP,2013-03-25 12:09:00,
2013-03-25 14:14:00,67.6,47.8,29.72,South,180,5.4,22.9,49,0.00,,OVC,0.00,WUHU21623XXSP,2013-03-25 12:14:00,
2013-03-25 14:19:00,67.1,47.9,29.73,SE,135,11.8,22.4,50,0.00,,OVC,0.00,WUHU21623XXSP,2013-03-25 12:19:00,
2013-03-25 14:24:00,66.7,48.1,29.72,SSW,202,18.5,22.4,51,0.00,,OVC,0.00,WUHU21623XXSP,2013-03-25 12:24:00,
2013-03-25 14:29:00,66.9,48.2,29.72,South,180,10.1,20.9,51,0.00,,OVC,0.00,WUHU21623XXSP,2013-03-25 12:29:00,
2013-03-25 14:34:00,66.9,48.2,29.72,SSE,157,2.8,20.9,51,0.00,,OVC,0.00,WUHU21623XXSP,2013-03-25 12:34:00,
2013-03-25 14:39:00,67.3,48.1,29.73,South,180,10.1,15.7,50,0.00,,OVC,0.00,WUHU21623XXSP,2013-03-25 12:39:00,
2013-03-25 14:44:00,67.3,48.1,29.72,ESE,112,4.0,15.7,50,0.00,,OVC,0.00,WUHU21623XXSP,2013-03-25 12:44:00,
2013-03-25 14:49:00,67.1,47.9,29.72,SSE,157,10.8,16.5,50,0.00,,OVC,0.00,WUHU21623XXSP,2013-03-25 12:49:00,
2013-03-25 14:54:00,66.7,48.1,29.70,SSE,157,5.6,16.5,51,0.00,,OVC,0.00,WUHU21623XXSP,2013-03-25 12:54:00,
2013-03-25 14:59:00,66.6,48.5,29.70,South,180,9.1,15.0,52,0.00,,OVC,0.00,WUHU21623XXSP,2013-03-25 12:59:00,
2013-03-25 15:04:00,66.6,48.5,29.70,SSW,202,5.2,18.3,52,0.00,,OVC,0.00,WUHU21623XXSP,2013-03-25 13:04:00,
2013-03-25 15:09:00,66.2,48.6,29.68,SSE,157,4.0,18.3,53,0.00,,OVC,0.00,WUHU21623XXSP,2013-03-25 13:09:00,
2013-03-25 15:14:00,66.4,48.8,29.70,ESE,112,2.0,17.3,53,0.00,,OVC,0.00,WUHU21623XXSP,2013-03-25 13:14:00,
2013-03-25 15:19:00,66.6,49.5,29.70,SE,135,7.4,17.3,54,0.00,,OVC,0.00,WUHU21623XXSP,2013-03-25 13:19:00,
2013-03-25 15:24:00,66.6,49.0,29.69,South,180,11.3,12.8,53,0.00,,OVC,0.00,WUHU21623XXSP,2013-03-25 13:24:00,
2013-03-25 15:29:00,66.6,48.5,29.68,SSE,157,0.0,12.8,52,0.00,,OVC,0.00,WUHU21623XXSP,2013-03-25 13:29:00,
2013-03-25 15:34:00,66.6,48.5,29.70,SSE,157,2.4,15.3,52,0.00,,OVC,0.00,WUHU21623XXSP,2013-03-25 13:34:00,
2013-03-25 15:39:00,66.7,48.1,29.70,South,180,5.6,22.1,51,0.00,,OVC,0.00,WUHU21623XXSP,2013-03-25 13:39:00,
2013-03-25 15:44:00,66.6,48.5,29.67,SSE,157,0.0,22.1,52,0.00,,OVC,0.00,WUHU21623XXSP,2013-03-25 13:44:00,
2013-03-25 15:49:00,66.0,48.5,29.67,South,180,11.3,16.5,53,0.00,,OVC,0.00,WUHU21623XXSP,2013-03-25 13:49:00,
2013-03-25 15:54:00,65.8,49.3,29.69,South,180,3.4,16.5,55,0.00,,OVC,0.00,WUHU21623XXSP,2013-03-25 13:54:00,
2013-03-25 15:59:00,66.0,50.0,29.69,SSE,157,3.2,11.6,56,0.00,,OVC,0.00,WUHU21623XXSP,2013-03-25 13:59:00,
2013-03-25 16:04:00,66.4,49.3,29.68,ESE,112,0.0,11.6,54,0.00,,OVC,0.00,WUHU21623XXSP,2013-03-25 14:04:00,
2013-03-25 16:09:00,66.4,49.9,29.69,ENE,67,0.0,11.6,55,0.00,,OVC,0.00,WUHU21623XXSP,2013-03-25 14:09:00,
2013-03-25 16:14:00,66.6,50.0,29.68,SW,225,3.4,8.4,55,0.00,,OVC,0.00,WUHU21623XXSP,2013-03-25 14:14:00,
2013-03-25 16:19:00,66.6,49.5,29.68,SSW,202,3.2,15.0,54,0.00,,OVC,0.00,WUHU21623XXSP,2013-03-25 14:19:00,
2013-03-25 16:24:00,66.6,49.0,29.68,SSE,157,10.3,15.7,53,0.00,,OVC,0.00,WUHU21623XXSP,2013-03-25 14:24:00,
2013-03-25 16:29:00,66.4,49.3,29.68,SSE,157,14.5,21.9,54,0.00,,OVC,0.00,WUHU21623XXSP,2013-03-25 14:29:00,
2013-03-25 16:34:00,65.8,48.8,29.67,SE,135,6.9,21.9,54,0.00,,OVC,0.00,WUHU21623XXSP,2013-03-25 14:34:00,
2013-03-25 16:39:00,65.7,49.2,29.67,SE,135,5.9,21.9,55,0.00,,OVC,0.00,WUHU21623XXSP,2013-03-25 14:39:00,
2013-03-25 16:44:00,65.5,49.0,29.67,SE,135,13.1,21.7,55,0.00,,OVC,0.00,WUHU21623XXSP,2013-03-25 14:44:00,
2013-03-25 16:49:00,65.3,48.8,29.67,SSW,202,3.2,21.7,55,0.00,,OVC,0.00,WUHU21623XXSP,2013-03-25 14:49:00,
2013-03-25 16:54:00,65.3,48.8,29.67,South,180,9.8,19.9,55,0.00,,OVC,0.00,WUHU21623XXSP,2013-03-25 14:54:00,
2013-03-25 16:59:00,65.3,48.8,29.67,SSE,157,2.4,20.9,55,0.00,,OVC,0.00,WUHU21623XXSP,2013-03-25 14:59:00,
2013-03-25 17:04:00,65.3,48.8,29.67,SE,135,2.8,20.9,55,0.00,,OVC,0.00,WUHU21623XXSP,2013-03-25 15:04:00,
2013-03-25 17:09:00,65.3,48.8,29.67,SE,135,8.4,20.9,55,0.00,,OVC,0.00,WUHU21623XXSP,2013-03-25 15:09:00,
2013-03-25 17:14:00,65.1,49.1,29.66,SW,225,4.9,19.7,56,0.00,,OVC,0.00,WUHU21623XXSP,2013-03-25 15:14:00,
2013-03-25 17:19:00,65.1,49.1,29.67,SSE,157,13.1,23.4,56,0.00,,OVC,0.00,WUHU21623XXSP,2013-03-25 15:19:00,
2013-03-25 17:24:00,65.1,48.6,29.67,SSE,157,8.9,23.4,55,0.00,,OVC,0.00,WUHU21623XXSP,2013-03-25 15:24:00,
2013-03-25 17:29:00,65.1,48.6,29.67,SSE,157,4.2,18.9,55,0.00,,OVC,0.00,WUHU21623XXSP,2013-03-25 15:29:00,
2013-03-25 17:34:00,64.9,48.9,29.67,SSE,157,10.1,14.7,56,0.00,,OVC,0.00,WUHU21623XXSP,2013-03-25 15:34:00,
2013-03-25 17:39:00,64.8,48.8,29.67,SSE,157,12.8,23.1,56,0.00,,OVC,0.00,WUHU21623XXSP,2013-03-25 15:39:00,
2013-03-25 17:44:00,64.8,48.8,29.66,South,180,7.2,23.1,56,0.00,,OVC,0.00,WUHU21623XXSP,2013-03-25 15:44:00,
2013-03-25 17:49:00,64.8,48.8,29.66,SSE,157,10.8,18.3,56,0.00,,OVC,0.00,WUHU21623XXSP,2013-03-25 15:49:00,
2013-03-25 17:54:00,64.6,48.7,29.66,SSE,157,6.4,20.1,56,0.00,,OVC,0.00,WUHU21623XXSP,2013-03-25 15:54:00,
2013-03-25 17:59:00,64.6,48.7,29.66,SSE,157,10.1,20.1,56,0.00,,OVC,0.00,WUHU21623XXSP,2013-03-25 15:59:00,
2013-03-25 18:04:00,64.6,48.7,29.66,SSW,202,8.1,19.9,56,0.00,,OVC,0.00,WUHU21623XXSP,2013-03-25 16:04:00,
2013-03-25 18:09:00,64.6,48.7,29.66,SSE,157,15.0,19.9,56,0.00,,OVC,0.00,WUHU21623XXSP,2013-03-25 16:09:00,
2013-03-25 18:14:00,64.6,49.1,29.66,SE,135,4.0,17.3,57,0.00,,OVC,0.00,WUHU21623XXSP,2013-03-25 16:14:00,
2013-03-25 18:19:00,64.2,49.2,29.66,SSW,202,11.8,18.9,58,0.00,,OVC,0.00,WUHU21623XXSP,2013-03-25 16:19:00,
2013-03-25 18:25:00,64.2,49.2,29.67,SSE,157,8.1,18.9,58,0.00,,OVC,0.00,WUHU21623XXSP,2013-03-25 16:25:00,
2013-03-25 18:30:00,64.0,49.5,29.66,SSE,157,5.6,20.9,59,0.00,,OVC,0.00,WUHU21623XXSP,2013-03-25 16:30:00,
2013-03-25 18:35:00,64.0,49.5,29.66,South,180,6.6,20.9,59,0.00,,OVC,0.00,WUHU21623XXSP,2013-03-25 16:35:00,
2013-03-25 18:40:00,64.0,49.5,29.66,SW,225,5.9,18.9,59,0.00,,OVC,0.00,WUHU21623XXSP,2013-03-25 16:40:00,
2013-03-25 18:45:00,64.0,49.5,29.66,ESE,112,0.0,18.9,59,0.00,,OVC,0.00,WUHU21623XXSP,2013-03-25 16:45:00,
2013-03-25 18:50:00,64.0,50.0,29.66,SSW,202,8.1,17.7,60,0.00,,OVC,0.00,WUHU21623XXSP,2013-03-25 16:50:00,
2013-03-25 18:55:00,63.9,49.9,29.66,SSE,157,6.4,18.5,60,0.00,,OVC,0.00,WUHU21623XXSP,2013-03-25 16:55:00,
2013-03-25 19:00:00,63.9,49.9,29.66,SSW,202,5.4,19.1,60,0.00,,OVC,0.00,WUHU21623XXSP,2013-03-25 17:00:00,
2013-03-25 19:05:00,63.7,50.1,29.65,SSE,157,9.4,21.7,61,0.00,,OVC,0.00,WUHU21623XXSP,2013-03-25 17:05:00,
2013-03-25 19:10:00,63.7,50.1,29.65,SSE,157,11.3,24.6,61,0.00,,OVC,0.00,WUHU21623XXSP,2013-03-25 17:10:00,
2013-03-25 19:15:00,63.9,50.3,29.64,SSE,157,17.5,24.6,61,0.00,,OVC,0.00,WUHU21623XXSP,2013-03-25 17:15:00,
2013-03-25 19:20:00,63.5,50.0,29.64,SE,135,10.6,23.9,61,0.00,,OVC,0.00,WUHU21623XXSP,2013-03-25 17:20:00,
2013-03-25 19:25:00,63.7,50.1,29.64,South,180,13.3,28.0,61,0.00,,OVC,0.00,WUHU21623XXSP,2013-03-25 17:25:00,
2013-03-25 19:30:00,63.5,50.4,29.64,SSE,157,6.9,28.0,62,0.00,,OVC,0.00,WUHU21623XXSP,2013-03-25 17:30:00,
2013-03-25 19:35:00,63.5,50.4,29.63,South,180,23.9,24.3,62,0.00,,OVC,0.00,WUHU21623XXSP,2013-03-25 17:35:00,
2013-03-25 19:40:00,63.3,50.6,29.63,SSE,157,14.3,24.3,63,0.00,,OVC,0.00,WUHU21623XXSP,2013-03-25 17:40:00,
2013-03-25 19:45:00,63.3,51.1,29.64,SSE,157,23.1,26.6,64,0.00,,OVC,0.00,WUHU21623XXSP,2013-03-25 17:45:00,
2013-03-25 19:50:00,63.3,51.1,29.64,South,180,15.0,26.6,64,0.00,,OVC,0.00,WUHU21623XXSP,2013-03-25 17:50:00,
2013-03-25 19:55:00,63.3,51.5,29.63,South,180,6.9,26.3,65,0.00,,OVC,0.00,WUHU21623XXSP,2013-03-25 17:55:00,
2013-03-25 20:00:00,63.3,51.5,29.63,SSE,157,21.7,26.3,65,0.00,,OVC,0.00,WUHU21623XXSP,2013-03-25 18:00:00,
2013-03-25 20:05:00,63.1,51.3,29.64,SE,135,11.8,27.6,65,0.00,,OVC,0.00,WUHU21623XXSP,2013-03-25 18:05:00,
2013-03-25 20:10:00,63.1,51.7,29.64,South,180,12.5,27.6,66,0.00,,OVC,0.00,WUHU21623XXSP,2013-03-25 18:10:00,
2013-03-25 20:15:00,63.0,51.6,29.64,SSE,157,21.5,24.1,66,0.00,,OVC,0.00,WUHU21623XXSP,2013-03-25 18:15:00,
2013-03-25 20:20:00,63.0,51.6,29.64,SSE,157,16.7,26.6,66,0.00,,OVC,0.00,WUHU21623XXSP,2013-03-25 18:20:00,
2013-03-25 20:25:00,62.8,51.8,29.65,South,180,11.3,26.6,67,0.00,,OVC,0.00,WUHU21623XXSP,2013-03-25 18:25:00,
2013-03-25 20:30:00,62.8,51.8,29.65,SSE,157,10.8,23.9,67,0.00,,OVC,0.00,WUHU21623XXSP,2013-03-25 18:30:00,
2013-03-25 20:35:00,62.8,51.8,29.64,SSE,157,7.6,20.7,67,0.00,,OVC,0.00,WUHU21623XXSP,2013-03-25 18:35:00,
2013-03-25 20:40:00,62.8,51.8,29.64,SSE,157,8.6,25.1,67,0.00,,OVC,0.00,WUHU21623XXSP,2013-03-25 18:40:00,
2013-03-25 20:45:00,62.8,51.8,29.64,SSE,157,9.8,25.1,67,0.00,,OVC,0.00,WUHU21623XXSP,2013-03-25 18:45:00,
2013-03-25 20:50:00,62.8,52.2,29.64,SSE,157,8.6,20.9,68,0.00,,OVC,0.00,WUHU21623XXSP,2013-03-25 18:50:00,
2013-03-25 20:55:00,62.6,52.0,29.64,South,180,5.2,26.3,68,0.00,,OVC,0.00,WUHU21623XXSP,2013-03-25 18:55:00,
2013-03-25 21:00:00,62.6,52.0,29.64,South,180,14.3,26.3,68,0.00,,OVC,0.00,WUHU21623XXSP,2013-03-25 19:00:00,
2013-03-25 21:05:00,62.4,51.9,29.64,SSE,157,17.9,22.4,68,0.00,,OVC,0.00,WUHU21623XXSP,2013-03-25 19:05:00,
2013-03-25 21:10:00,62.4,51.9,29.64,SE,135,1.8,22.9,68,0.00,,OVC,0.00,WUHU21623XXSP,2013-03-25 19:10:00,
2013-03-25 21:15:00,62.4,51.9,29.63,SSE,157,16.5,22.9,68,0.00,,OVC,0.00,WUHU21623XXSP,2013-03-25 19:15:00,
2013-03-25 21:20:00,62.2,52.1,29.64,SSE,157,3.4,20.9,69,0.00,,OVC,0.00,WUHU21623XXSP,2013-03-25 19:20:00,
2013-03-25 21:25:00,62.2,52.1,29.64,SE,135,0.0,21.7,69,0.00,,OVC,0.00,WUHU21623XXSP,2013-03-25 19:25:00,
2013-03-25 21:30:00,62.2,52.1,29.64,South,180,6.9,23.4,69,0.00,,OVC,0.00,WUHU21623XXSP,2013-03-25 19:30:00,
2013-03-25 21:35:00,62.1,52.0,29.64,South,180,15.7,23.4,69,0.00,,OVC,0.00,WUHU21623XXSP,2013-03-25 19:35:00,
2013-03-25 21:40:00,62.1,52.0,29.65,SSE,157,2.8,17.3,69,0.00,,OVC,0.00,WUHU21623XXSP,2013-03-25 19:40:00,
2013-03-25 21:45:00,62.1,52.3,29.64,SSW,202,4.9,16.5,70,0.00,,OVC,0.00,WUHU21623XXSP,2013-03-25 19:45:00,
2013-03-25 21:50:00,61.9,52.2,29.65,South,180,9.6,15.7,70,0.00,,OVC,0.00,WUHU21623XXSP,2013-03-25 19:50:00,
2013-03-25 21:55:00,62.1,52.3,29.64,SSW,202,9.8,16.3,70,0.00,,OVC,0.00,WUHU21623XXSP,2013-03-25 19:55:00,
2013-03-25 22:00:00,61.7,52.3,29.63,South,180,14.1,21.1,71,0.00,,OVC,0.00,WUHU21623XXSP,2013-03-25 20:00:00,
2013-03-25 22:05:00,61.7,52.3,29.63,SW,225,12.5,23.6,71,0.00,,OVC,0.00,WUHU21623XXSP,2013-03-25 20:05:00,
2013-03-25 22:10:00,61.7,52.7,29.63,South,180,4.0,23.6,72,0.00,,OVC,0.00,WUHU21623XXSP,2013-03-25 20:10:00,
2013-03-25 22:15:00,61.5,52.9,29.63,SSW,202,5.2,18.5,73,0.00,,OVC,0.00,WUHU21623XXSP,2013-03-25 20:15:00,
2013-03-25 22:20:00,61.5,52.9,29.63,SSW,202,2.2,15.7,73,0.00,,OVC,0.00,WUHU21623XXSP,2013-03-25 20:20:00,
2013-03-25 22:26:00,61.5,53.3,29.63,WSW,247,2.8,17.5,74,0.00,,OVC,0.00,WUHU21623XXSP,2013-03-25 20:26:00,
2013-03-25 22:31:00,61.3,53.1,29.63,SSW,202,3.7,17.5,74,0.00,,OVC,0.00,WUHU21623XXSP,2013-03-25 20:31:00,
2013-03-25 22:35:00,61.2,53.3,29.63,SSE,157,11.3,18.9,75,0.00,,OVC,0.00,WUHU21623XXSP,2013-03-25 20:35:00,
2013-03-25 22:40:00,61.2,53.7,29.63,South,180,6.4,18.9,76,0.00,,OVC,0.00,WUHU21623XXSP,2013-03-25 20:40:00,
2013-03-25 22:45:00,61.2,54.0,29.63,South,180,8.6,18.7,77,0.00,,OVC,0.00,WUHU21623XXSP,2013-03-25 20:45:00,
2013-03-25 22:50:00,61.0,53.8,29.63,SW,225,4.2,18.7,77,0.00,,OVC,0.00,WUHU21623XXSP,2013-03-25 20:50:00,
2013-03-25 22:55:00,61.0,54.2,29.63,South,180,4.2,15.3,78,0.00,,OVC,0.00,WUHU21623XXSP,2013-03-25 20:55:00,
2013-03-25 23:00:00,60.8,54.3,29.63,SSE,157,4.2,15.0,79,0.00,,OVC,0.00,WUHU21623XXSP,2013-03-25 21:00:00,
2013-03-25 23:05:00,60.6,54.1,29.62,SW,225,6.2,14.3,79,0.00,,OVC,0.00,WUHU21623XXSP,2013-03-25 21:05:00,
2013-03-25 23:10:00,60.4,54.3,29.62,WSW,247,11.3,14.7,80,0.00,,OVC,0.00,WUHU21623XXSP,2013-03-25 21:10:00,
2013-03-25 23:15:00,60.4,54.3,29.62,South,180,8.6,14.7,80,0.00,,OVC,0.00,WUHU21623XXSP,2013-03-25 21:15:00,
2013-03-25 23:20:00,60.4,54.6,29.62,SW,225,8.9,13.1,81,0.00,,OVC,0.00,WUHU21623XXSP,2013-03-25 21:20:00,
2013-03-25 23:25:00,60.3,54.5,29.62,SW,225,6.6,16.5,81,0.00,,OVC,0.00,WUHU21623XXSP,2013-03-25 21:25:00,
2013-03-25 23:31:00,60.4,54.6,29.62,South,180,3.7,16.5,81,0.00,,OVC,0.00,WUHU21623XXSP,2013-03-25 21:31:00,
2013-03-25 23:36:00,60.3,54.5,29.62,SSW,202,6.4,13.1,81,0.00,,OVC,0.00,WUHU21623XXSP,2013-03-25 21:36:00,
2013-03-25 23:41:00,60.3,54.5,29.62,South,180,7.9,8.6,81,0.00,,OVC,0.00,WUHU21623XXSP,2013-03-25 21:41:00,
2013-03-25 23:46:00,60.3,54.8,29.61,SSW,202,1.4,9.8,82,0.00,,OVC,0.00,WUHU21623XXSP,2013-03-25 21:46:00,
2013-03-25 23:50:00,60.1,54.6,29.62,SW,225,0.0,10.3,82,0.00,,OVC,0.00,WUHU21623XXSP,2013-03-25 21:50:00,